Time;durP1;ratioP1;P1;durP2;ratioP2;P2;SDS_P1;SDS_P2;PMS_P1;PMS_P2;Temp;Humidity;BMP_temperature;BMP_pressure;BME280_temperature;BME280_humidity;BME280_pressure;Samples;Min_cycle;Max_cycle;Signal;HPM_P1;HPM_P2
2024/03/14 00:00:53;;;;;;;0.75;0.75;;;5.10;99.90;;;;;;5095642;28;20203;-72
2024/03/14 00:03:19;;;;;;;0.82;0.82;;;5.10;99.90;;;;;;5095276;28;20746;-73
2024/03/14 00:05:45;;;;;;;0.70;0.70;;;5.10;99.90;;;;;;5094911;28;20189;-72
2024/03/14 00:08:11;;;;;;;0.60;0.60;;;5.10;99.90;;;;;;5077630;28;20253;-72
2024/03/14 00:10:40;;;;;;;2.63;1.88;;;5.10;99.90;;;;;;5095116;28;20196;-72
2024/03/14 00:13:08;;;;;;;1.35;1.27;;;5.10;99.90;;;;;;5095039;28;20203;-71
2024/03/14 00:15:34;;;;;;;0.85;0.85;;;5.10;99.90;;;;;;5095177;28;20226;-72
2024/03/14 00:18:12;;;;;;;;;;;;;;;;;;;;;
2024/03/14 00:20:43;;;;;;;1.23;1.20;;;5.10;99.90;;;;;;5065673;28;20208;-75
2024/03/14 00:23:27;;;;;;;0.65;0.65;;;5.20;99.90;;;;;;5095152;28;20235;-75
2024/03/14 00:25:56;;;;;;;0.82;0.82;;;5.20;99.90;;;;;;5095155;28;20208;-75
2024/03/14 00:28:25;;;;;;;1.70;1.60;;;5.20;99.90;;;;;;5094892;28;20242;-74
2024/03/14 00:30:51;;;;;;;0.70;0.70;;;5.30;99.90;;;;;;5094952;28;20204;-74
2024/03/14 00:33:16;;;;;;;1.73;1.27;;;5.30;99.90;;;;;;5094954;28;20262;-74
2024/03/14 00:35:47;;;;;;;0.80;0.80;;;5.30;99.90;;;;;;5094680;28;20184;-74
2024/03/14 00:38:14;;;;;;;0.80;0.80;;;5.40;99.90;;;;;;5094909;28;20268;-74
2024/03/14 00:40:39;;;;;;;1.42;1.33;;;5.40;99.90;;;;;;5074190;28;20196;-74
2024/03/14 00:43:13;;;;;;;0.90;0.90;;;5.50;99.90;;;;;;5091830;28;20211;-74
2024/03/14 00:45:39;;;;;;;1.40;1.23;;;5.50;99.90;;;;;;5094412;28;20235;-74
2024/03/14 00:48:08;;;;;;;1.15;1.08;;;5.50;99.90;;;;;;5094789;28;20196;-74
2024/03/14 00:50:36;;;;;;;1.65;1.50;;;5.60;99.90;;;;;;5094425;28;20208;-75
2024/03/14 00:53:08;;;;;;;0.90;0.90;;;5.50;99.90;;;;;;5076255;28;20729;-74
2024/03/14 00:55:34;;;;;;;0.85;0.85;;;5.60;99.90;;;;;;5094343;28;20196;-73
2024/03/14 00:58:02;;;;;;;0.80;0.80;;;5.60;99.90;;;;;;5094558;28;20184;-73
2024/03/14 01:00:29;;;;;;;0.98;0.90;;;5.70;99.90;;;;;;5094849;28;20279;-75
2024/03/14 01:02:55;;;;;;;0.80;0.80;;;5.70;99.90;;;;;;5094428;28;20196;-75
2024/03/14 01:05:20;;;;;;;0.98;0.98;;;5.70;99.90;;;;;;5094157;28;20211;-75
2024/03/14 01:07:49;;;;;;;1.10;1.10;;;5.70;99.90;;;;;;5094124;28;20663;-75
2024/03/14 01:10:15;;;;;;;0.60;0.60;;;5.70;99.90;;;;;;5094244;28;20208;-75
2024/03/14 01:12:41;;;;;;;0.90;0.90;;;5.80;99.90;;;;;;5094079;28;20216;-75
2024/03/14 01:15:07;;;;;;;2.03;1.83;;;5.80;99.90;;;;;;5094058;28;20271;-74
2024/03/14 01:17:36;;;;;;;0.95;0.95;;;5.80;99.90;;;;;;5092940;28;20188;-74
2024/03/14 01:20:09;;;;;;;0.68;0.68;;;5.90;99.90;;;;;;5094055;28;20276;-75
2024/03/14 01:22:36;;;;;;;0.90;0.90;;;6.00;99.90;;;;;;5109436;28;20345;-74
2024/03/14 01:25:02;;;;;;;2.15;1.10;;;6.00;99.90;;;;;;5075731;28;20652;-74
2024/03/14 01:27:28;;;;;;;0.80;0.80;;;6.00;99.90;;;;;;5093839;28;20227;-71
2024/03/14 01:29:54;;;;;;;0.80;0.80;;;6.00;99.90;;;;;;5094089;28;20216;-72
2024/03/14 01:32:19;;;;;;;2.60;1.35;;;6.00;99.90;;;;;;5093712;28;20196;-71
2024/03/14 01:34:47;;;;;;;0.60;0.60;;;6.00;99.90;;;;;;5094011;28;20542;-72
2024/03/14 01:37:12;;;;;;;0.73;0.73;;;6.10;99.90;;;;;;5086006;28;20227;-72
2024/03/14 01:39:38;;;;;;;0.80;0.80;;;6.20;99.90;;;;;;5093103;28;20204;-72
2024/03/14 01:42:05;;;;;;;1.00;1.00;;;6.20;99.90;;;;;;5093704;28;20222;-71
2024/03/14 01:45:00;;;;;;;1.42;1.33;;;6.10;99.90;;;;;;5081423;28;20233;-72
2024/03/14 01:47:26;;;;;;;0.90;0.90;;;6.20;99.90;;;;;;5072057;28;20201;-71
2024/03/14 01:49:52;;;;;;;1.25;1.15;;;6.10;99.90;;;;;;5073326;28;20275;-72
2024/03/14 01:52:19;;;;;;;0.80;0.80;;;6.20;99.90;;;;;;5073211;28;20650;-72
2024/03/14 01:54:46;;;;;;;0.98;0.95;;;6.10;99.90;;;;;;5071485;28;20242;-71
2024/03/14 01:57:12;;;;;;;0.80;0.80;;;6.10;99.90;;;;;;5073317;28;20196;-71
2024/03/14 01:59:39;;;;;;;1.00;1.00;;;6.10;99.90;;;;;;5073352;28;20193;-71
2024/03/14 02:02:06;;;;;;;0.80;0.80;;;6.20;99.90;;;;;;5055087;28;20197;-72
2024/03/14 02:04:47;;;;;;;0.80;0.80;;;6.20;99.90;;;;;;5061768;28;20197;-72
2024/03/14 02:07:14;;;;;;;0.77;0.77;;;6.20;99.90;;;;;;5052537;28;20216;-72
2024/03/14 02:09:41;;;;;;;0.88;0.88;;;6.20;99.90;;;;;;5053032;28;20200;-71
2024/03/14 02:12:07;;;;;;;1.00;1.00;;;6.20;99.90;;;;;;5053067;28;20681;-71
2024/03/14 02:14:33;;;;;;;0.60;0.60;;;6.20;99.90;;;;;;5052689;28;20185;-71
2024/03/14 02:16:59;;;;;;;0.70;0.70;;;6.30;99.90;;;;;;5034774;28;20204;-71
2024/03/14 02:19:25;;;;;;;1.63;1.52;;;6.20;99.90;;;;;;5052431;28;20543;-71
2024/03/14 02:21:51;;;;;;;1.00;1.00;;;6.20;99.90;;;;;;5034910;28;20263;-71
2024/03/14 02:24:17;;;;;;;0.80;0.80;;;6.20;99.90;;;;;;5034745;28;20209;-71
2024/03/14 02:26:43;;;;;;;0.70;0.70;;;6.20;99.90;;;;;;5052425;28;20216;-71
2024/03/14 02:29:09;;;;;;;0.90;0.90;;;6.20;99.90;;;;;;5067119;28;20604;-71
2024/03/14 02:31:35;;;;;;;0.75;0.75;;;6.30;99.90;;;;;;5067859;28;20238;-71
2024/03/14 02:34:04;;;;;;;0.80;0.80;;;6.30;99.90;;;;;;5054301;28;20560;-71
2024/03/14 02:36:31;;;;;;;0.60;0.60;;;6.30;99.90;;;;;;5054532;28;20599;-76
2024/03/14 02:38:56;;;;;;;0.90;0.90;;;6.40;99.90;;;;;;5072671;28;20213;-76
2024/03/14 02:41:22;;;;;;;0.70;0.70;;;6.40;99.90;;;;;;5072357;28;20227;-76
2024/03/14 02:43:53;;;;;;;0.90;0.88;;;6.40;99.90;;;;;;5058930;28;20960;-76
2024/03/14 02:46:19;;;;;;;0.73;0.73;;;6.40;99.90;;;;;;5092589;28;20192;-76
2024/03/14 02:48:44;;;;;;;2.05;1.65;;;6.40;99.90;;;;;;5074551;28;20200;-76
2024/03/14 02:51:11;;;;;;;0.68;0.68;;;6.50;99.90;;;;;;5092476;28;20211;-75
2024/03/14 02:53:36;;;;;;;0.60;0.60;;;6.50;99.90;;;;;;5092352;28;20207;-76
2024/03/14 02:56:03;;;;;;;0.98;0.98;;;6.60;99.90;;;;;;5092629;28;20188;-76
2024/03/14 02:58:29;;;;;;;0.82;0.82;;;6.50;99.90;;;;;;5092361;28;20185;-76
2024/03/14 03:00:55;;;;;;;0.90;0.90;;;6.50;99.90;;;;;;5092509;28;20210;-76
2024/03/14 03:03:21;;;;;;;1.38;0.90;;;6.50;99.90;;;;;;5092302;28;20218;-76
2024/03/14 03:05:48;;;;;;;0.70;0.70;;;6.50;99.90;;;;;;5092447;28;20192;-76
2024/03/14 03:08:17;;;;;;;0.70;0.70;;;6.50;99.90;;;;;;5092551;28;20655;-76
2024/03/14 03:10:43;;;;;;;1.15;1.05;;;6.60;99.90;;;;;;5107988;28;20298;-76
2024/03/14 03:13:09;;;;;;;0.75;0.75;;;6.60;99.90;;;;;;5092436;28;20922;-76
2024/03/14 03:15:35;;;;;;;1.00;1.00;;;6.70;99.90;;;;;;5092225;28;20191;-76
2024/03/14 03:18:01;;;;;;;0.90;0.90;;;6.70;99.90;;;;;;5074185;28;20200;-77
2024/03/14 03:20:27;;;;;;;1.30;1.20;;;6.70;99.90;;;;;;5092150;28;20200;-78
2024/03/14 03:23:12;;;;;;;0.60;0.60;;;6.60;99.90;;;;;;5092209;28;20238;-75
2024/03/14 03:25:38;;;;;;;0.80;0.80;;;6.70;99.90;;;;;;5092048;28;20659;-76
2024/03/14 03:28:14;;;;;;;1.00;1.00;;;6.70;99.90;;;;;;5092322;28;20188;-75
2024/03/14 03:30:40;;;;;;;0.80;0.80;;;6.70;99.90;;;;;;5086420;28;20547;-75
2024/03/14 03:33:11;;;;;;;0.80;0.80;;;6.70;99.90;;;;;;5107918;28;20682;-75
2024/03/14 03:35:37;;;;;;;0.68;0.68;;;6.80;99.90;;;;;;5091988;28;20188;-77
2024/03/14 03:38:06;;;;;;;0.55;0.55;;;6.90;99.90;;;;;;5092268;28;20271;-76
2024/03/14 03:40:35;;;;;;;1.42;1.33;;;6.80;99.90;;;;;;5093508;28;20226;-76
2024/03/14 03:43:04;;;;;;;1.00;1.00;;;6.80;99.90;;;;;;5095860;28;20196;-75
2024/03/14 03:45:29;;;;;;;1.23;1.13;;;6.90;99.90;;;;;;5095591;28;20224;-76
2024/03/14 03:47:56;;;;;;;0.80;0.80;;;6.90;99.90;;;;;;5095950;28;20322;-75
2024/03/14 03:50:23;;;;;;;0.70;0.70;;;7.00;99.90;;;;;;5095510;28;20683;-77
2024/03/14 03:52:49;;;;;;;0.70;0.70;;;7.00;99.90;;;;;;5096066;28;20191;-76
2024/03/14 03:55:18;;;;;;;1.20;1.17;;;7.00;99.90;;;;;;5096933;28;20203;-76
2024/03/14 03:57:44;;;;;;;0.73;0.73;;;7.00;99.90;;;;;;5095474;28;20276;-76
2024/03/14 04:03:20;;;;;;;0.80;0.80;;;7.00;99.90;;;;;;5049824;28;20279;-77
2024/03/14 04:05:46;;;;;;;0.80;0.80;;;7.00;99.90;;;;;;5053111;28;20664;-76
2024/03/14 04:08:14;;;;;;;0.70;0.70;;;7.30;99.90;;;;;;5053172;28;20201;-76
2024/03/14 04:10:40;;;;;;;0.60;0.60;;;7.20;99.90;;;;;;5052787;28;20700;-76
2024/03/14 04:13:10;;;;;;;0.70;0.70;;;7.20;99.90;;;;;;5052952;28;20225;-76
2024/03/14 04:15:36;;;;;;;0.73;0.73;;;7.20;99.90;;;;;;5052805;28;20190;-78
2024/03/14 04:18:05;;;;;;;0.60;0.60;;;7.20;99.90;;;;;;5052882;28;20301;-76
2024/03/14 04:20:33;;;;;;;0.75;0.75;;;7.20;99.90;;;;;;5052590;28;20707;-76
2024/03/14 04:22:59;;;;;;;2.47;1.00;;;7.10;99.90;;;;;;5036039;28;20248;-75
2024/03/14 04:25:25;;;;;;;0.80;0.80;;;7.30;99.90;;;;;;5052309;28;20214;-78
2024/03/14 04:27:52;;;;;;;0.70;0.70;;;7.30;99.90;;;;;;5052707;28;20205;-77
2024/03/14 04:30:21;;;;;;;0.90;0.90;;;7.30;99.90;;;;;;5035658;28;20248;-76
2024/03/14 04:32:50;;;;;;;0.85;0.85;;;7.30;99.90;;;;;;5052382;28;20684;-75
2024/03/14 04:35:17;;;;;;;0.70;0.70;;;7.40;99.90;;;;;;5052229;28;20198;-76
2024/03/14 04:37:44;;;;;;;1.65;1.48;;;7.40;99.90;;;;;;5067107;28;20204;-76
2024/03/14 04:40:13;;;;;;;1.02;1.02;;;7.40;99.90;;;;;;5074658;28;20189;-76
2024/03/14 04:42:43;;;;;;;0.70;0.70;;;7.30;99.90;;;;;;5074562;28;20661;-76
2024/03/14 04:45:19;;;;;;;1.58;1.48;;;7.40;99.90;;;;;;5074444;28;20228;-76
2024/03/14 04:47:45;;;;;;;0.60;0.60;;;7.40;99.90;;;;;;5074609;28;20185;-77
2024/03/14 04:50:13;;;;;;;1.85;1.42;;;7.40;99.90;;;;;;5074328;28;20200;-75
2024/03/14 04:52:39;;;;;;;0.80;0.80;;;7.40;99.90;;;;;;5074040;28;20189;-76
2024/03/14 04:55:08;;;;;;;0.70;0.70;;;7.50;99.90;;;;;;5074395;28;20200;-77
2024/03/14 04:57:34;;;;;;;0.80;0.80;;;7.50;99.90;;;;;;5074133;28;20617;-76
2024/03/14 05:00:03;;;;;;;1.42;1.33;;;7.60;99.90;;;;;;5074338;28;20185;-77
2024/03/14 05:02:29;;;;;;;0.80;0.80;;;7.50;99.90;;;;;;5074017;28;20192;-75
2024/03/14 05:04:57;;;;;;;0.70;0.70;;;7.50;99.90;;;;;;5074226;28;20242;-76
2024/03/14 05:07:25;;;;;;;0.70;0.70;;;7.60;99.90;;;;;;5074387;28;20185;-72
2024/03/14 05:09:54;;;;;;;0.70;0.70;;;7.60;99.90;;;;;;5092499;28;20211;-72
2024/03/14 05:12:19;;;;;;;0.70;0.70;;;7.50;99.90;;;;;;5094004;28;20731;-72
2024/03/14 05:14:46;;;;;;;0.80;0.80;;;7.50;99.90;;;;;;5094270;28;20322;-71
2024/03/14 05:17:12;;;;;;;1.55;1.45;;;7.60;99.90;;;;;;5094107;28;20267;-72
2024/03/14 05:19:39;;;;;;;0.70;0.70;;;7.60;99.90;;;;;;5093928;28;20668;-71
2024/03/14 05:22:04;;;;;;;0.70;0.70;;;7.60;99.90;;;;;;5075626;28;20220;-72
2024/03/14 05:24:30;;;;;;;0.70;0.70;;;7.60;99.90;;;;;;5094146;28;20231;-72
2024/03/14 05:26:59;;;;;;;1.35;1.25;;;7.60;99.90;;;;;;5093997;28;20196;-71
2024/03/14 05:29:25;;;;;;;0.60;0.60;;;7.60;99.90;;;;;;5093719;28;20266;-71
2024/03/14 05:31:51;;;;;;;0.60;0.60;;;7.60;99.90;;;;;;5109522;28;20204;-71
2024/03/14 05:34:17;;;;;;;0.50;0.50;;;7.50;99.90;;;;;;5093727;28;20267;-72
2024/03/14 05:36:42;;;;;;;0.70;0.70;;;7.50;99.90;;;;;;5093731;28;20192;-72
2024/03/14 05:39:09;;;;;;;0.75;0.75;;;7.50;99.90;;;;;;5093745;28;20192;-72
2024/03/14 05:41:34;;;;;;;0.75;0.75;;;7.60;99.90;;;;;;5093486;28;20203;-72
2024/03/14 05:44:00;;;;;;;0.70;0.70;;;7.60;99.90;;;;;;5093565;28;20227;-72
2024/03/14 05:46:27;;;;;;;0.70;0.70;;;7.60;99.90;;;;;;5093480;28;20208;-72
2024/03/14 05:48:53;;;;;;;0.55;0.55;;;7.60;99.90;;;;;;5093413;28;20188;-72
2024/03/14 05:51:19;;;;;;;1.27;1.17;;;7.60;99.90;;;;;;5093007;28;20549;-73
2024/03/14 05:53:45;;;;;;;0.65;0.65;;;7.60;99.90;;;;;;5075262;28;20192;-73
2024/03/14 05:56:11;;;;;;;0.80;0.80;;;7.60;99.90;;;;;;5093394;28;20203;-72
2024/03/14 05:58:37;;;;;;;0.60;0.60;;;7.70;99.90;;;;;;5093278;28;20216;-72
2024/03/14 06:01:03;;;;;;;0.70;0.70;;;7.60;99.90;;;;;;5075342;28;20658;-72
2024/03/14 06:03:29;;;;;;;0.70;0.70;;;7.60;99.90;;;;;;5092527;28;20188;-72
2024/03/14 06:05:57;;;;;;;0.80;0.80;;;7.60;99.90;;;;;;5093274;28;20675;-71
2024/03/14 06:08:23;;;;;;;0.80;0.80;;;7.60;99.90;;;;;;5092936;28;20279;-70
2024/03/14 06:10:49;;;;;;;0.80;0.80;;;7.50;99.90;;;;;;5093093;28;20212;-69
2024/03/14 06:13:14;;;;;;;0.70;0.70;;;7.50;99.90;;;;;;5093194;28;20531;-69
2024/03/14 06:15:40;;;;;;;0.70;0.70;;;7.50;99.90;;;;;;5092926;28;20188;-71
2024/03/14 06:18:06;;;;;;;0.80;0.80;;;7.50;99.90;;;;;;5090167;28;20192;-74
2024/03/14 06:20:34;;;;;;;0.70;0.70;;;7.50;99.90;;;;;;5089099;28;20200;-74
2024/03/14 06:22:59;;;;;;;1.02;1.00;;;7.70;99.90;;;;;;5093014;28;20215;-74
2024/03/14 06:25:25;;;;;;;0.70;0.70;;;7.70;99.90;;;;;;5092844;28;20235;-74
2024/03/14 06:27:52;;;;;;;0.70;0.70;;;7.70;99.90;;;;;;5092895;28;20306;-74
2024/03/14 06:30:18;;;;;;;0.70;0.70;;;7.70;99.90;;;;;;5092681;28;20196;-74
2024/03/14 06:32:47;;;;;;;0.60;0.60;;;7.70;99.90;;;;;;5092812;28;20651;-74
2024/03/14 06:35:13;;;;;;;0.70;0.70;;;7.70;99.90;;;;;;5092718;28;20181;-74
2024/03/14 06:37:39;;;;;;;0.80;0.80;;;7.80;99.90;;;;;;5092957;28;20202;-74
2024/03/14 06:40:05;;;;;;;0.60;0.60;;;7.80;99.90;;;;;;5093074;28;20195;-74
2024/03/14 06:42:32;;;;;;;0.60;0.60;;;7.90;99.90;;;;;;5092737;28;20184;-74
2024/03/14 06:45:02;;;;;;;0.60;0.60;;;7.90;99.90;;;;;;5092540;28;20277;-73
2024/03/14 06:47:33;;;;;;;0.70;0.70;;;7.90;99.90;;;;;;5074817;28;20192;-73
2024/03/14 06:50:00;;;;;;;0.70;0.70;;;7.90;99.90;;;;;;5092992;28;20199;-74
2024/03/14 06:52:26;;;;;;;0.65;0.65;;;8.00;99.90;;;;;;5092726;28;20204;-73
2024/03/14 06:54:53;;;;;;;0.70;0.70;;;8.10;99.90;;;;;;5074859;28;20771;-74
2024/03/14 06:57:19;;;;;;;0.80;0.80;;;8.10;99.90;;;;;;5092817;28;20651;-73
2024/03/14 06:59:48;;;;;;;0.70;0.70;;;8.10;99.90;;;;;;5093405;28;20188;-74
2024/03/14 07:02:17;;;;;;;0.80;0.80;;;8.10;99.90;;;;;;5093081;28;20644;-74
2024/03/14 07:04:43;;;;;;;0.75;0.75;;;8.10;99.90;;;;;;5092851;28;20192;-74
2024/03/14 07:07:11;;;;;;;0.68;0.68;;;8.10;99.90;;;;;;5074391;28;20250;-74
2024/03/14 07:09:37;;;;;;;0.70;0.70;;;8.20;99.90;;;;;;5092228;28;20195;-74
2024/03/14 07:12:05;;;;;;;0.80;0.80;;;8.20;99.90;;;;;;5108059;28;20212;-74
2024/03/14 07:14:31;;;;;;;0.60;0.60;;;8.20;99.90;;;;;;5087798;28;20181;-74
2024/03/14 07:16:57;;;;;;;0.55;0.55;;;8.30;99.90;;;;;;5094313;28;20195;-74
2024/03/14 07:19:23;;;;;;;0.65;0.65;;;8.30;99.90;;;;;;5096131;28;20188;-73
2024/03/14 07:21:55;;;;;;;0.85;0.85;;;8.40;99.90;;;;;;5096401;28;20215;-74
2024/03/14 07:24:24;;;;;;;0.70;0.70;;;8.40;99.90;;;;;;5095991;28;20207;-73
2024/03/14 07:26:49;;;;;;;0.90;0.90;;;8.40;99.90;;;;;;5096521;28;20207;-73
2024/03/14 07:29:15;;;;;;;0.80;0.80;;;8.40;99.90;;;;;;5096286;28;20191;-73
2024/03/14 07:31:45;;;;;;;0.60;0.60;;;8.40;99.90;;;;;;5077975;28;20216;-72
2024/03/14 07:34:11;;;;;;;0.60;0.60;;;8.50;99.90;;;;;;5096089;28;20191;-73
2024/03/14 07:36:41;;;;;;;0.80;0.80;;;8.50;99.90;;;;;;5095900;28;20540;-73
2024/03/14 07:39:10;;;;;;;0.70;0.70;;;8.50;99.90;;;;;;5096093;28;20261;-72
2024/03/14 07:41:41;;;;;;;0.70;0.70;;;8.50;99.90;;;;;;5095666;28;20359;-73
2024/03/14 07:44:07;;;;;;;0.73;0.73;;;8.60;99.90;;;;;;5095706;28;20224;-73
2024/03/14 07:46:33;;;;;;;0.80;0.80;;;8.70;99.90;;;;;;5111500;28;20200;-73
2024/03/14 07:48:59;;;;;;;0.80;0.80;;;8.80;99.90;;;;;;5095830;28;20271;-73
2024/03/14 07:51:27;;;;;;;0.85;0.85;;;8.80;99.90;;;;;;5077629;28;20730;-73
2024/03/14 07:53:53;;;;;;;0.60;0.60;;;8.90;99.90;;;;;;5096044;28;20192;-73
2024/03/14 07:56:21;;;;;;;0.80;0.80;;;9.00;99.90;;;;;;5095659;28;20204;-73
2024/03/14 07:58:46;;;;;;;0.60;0.60;;;9.10;99.90;;;;;;5095738;28;20224;-73
2024/03/14 08:01:19;;;;;;;0.70;0.70;;;9.10;99.90;;;;;;5096305;28;20677;-73
2024/03/14 08:03:48;;;;;;;0.80;0.80;;;9.20;99.90;;;;;;5095521;28;20667;-73
2024/03/14 08:06:16;;;;;;;0.70;0.70;;;9.20;99.90;;;;;;5095560;28;20600;-74
2024/03/14 08:08:42;;;;;;;0.70;0.70;;;9.30;99.90;;;;;;5095264;28;20275;-73
2024/03/14 08:11:11;;;;;;;0.73;0.73;;;9.40;99.90;;;;;;5088658;28;20350;-73
2024/03/14 08:13:39;;;;;;;0.73;0.73;;;9.40;99.90;;;;;;5095206;28;20206;-74
2024/03/14 08:16:22;;;;;;;0.60;0.60;;;9.40;99.90;;;;;;5077256;28;20596;-74
2024/03/14 08:18:48;;;;;;;0.75;0.75;;;9.40;99.90;;;;;;5095462;28;20192;-73
2024/03/14 08:21:14;;;;;;;0.77;0.77;;;9.40;99.90;;;;;;5077108;28;20326;-74
2024/03/14 08:23:45;;;;;;;0.70;0.70;;;9.40;99.90;;;;;;5095304;28;20200;-74
2024/03/14 08:26:12;;;;;;;0.60;0.60;;;9.40;99.90;;;;;;5094777;28;20271;-74
2024/03/14 08:28:41;;;;;;;0.60;0.60;;;9.40;99.90;;;;;;5095006;28;20188;-74
2024/03/14 08:31:14;;;;;;;0.70;0.70;;;9.40;99.90;;;;;;5094855;28;20719;-74
2024/03/14 08:33:44;;;;;;;0.70;0.70;;;9.50;99.90;;;;;;5094896;28;20189;-74
2024/03/14 08:36:10;;;;;;;0.80;0.80;;;9.60;99.90;;;;;;5095009;28;20184;-74
2024/03/14 08:38:36;;;;;;;0.60;0.60;;;9.60;99.90;;;;;;5094522;28;20659;-75
2024/03/14 08:41:03;;;;;;;0.60;0.60;;;9.70;99.90;;;;;;5094908;28;20203;-75
2024/03/14 08:43:33;;;;;;;0.70;0.70;;;9.70;99.90;;;;;;5094459;28;20732;-76
2024/03/14 08:46:00;;;;;;;0.60;0.60;;;9.70;99.90;;;;;;5094769;28;20565;-77
2024/03/14 08:48:26;;;;;;;0.70;0.70;;;9.70;99.90;;;;;;5094458;28;20188;-77
2024/03/14 08:50:52;;;;;;;0.80;0.80;;;9.70;99.90;;;;;;5094502;28;20207;-77
2024/03/14 08:53:17;;;;;;;0.70;0.70;;;9.80;99.90;;;;;;5094487;28;20184;-76
2024/03/14 08:55:54;;;;;;;0.70;0.70;;;9.90;99.90;;;;;;5094565;28;20200;-76
2024/03/14 08:58:21;;;;;;;0.60;0.60;;;9.80;99.90;;;;;;5076393;28;20192;-76
2024/03/14 09:00:47;;;;;;;0.68;0.68;;;9.80;99.90;;;;;;5094490;28;20555;-76
2024/03/14 09:03:15;;;;;;;0.65;0.65;;;9.80;99.90;;;;;;5094378;28;20192;-76
2024/03/14 09:05:42;;;;;;;0.60;0.60;;;9.80;99.90;;;;;;5094128;28;20245;-76
2024/03/14 09:08:08;;;;;;;0.70;0.70;;;9.80;99.90;;;;;;5093943;28;20736;-76
2024/03/14 09:10:33;;;;;;;0.70;0.70;;;9.90;99.90;;;;;;5093961;28;20295;-76
2024/03/14 09:13:00;;;;;;;0.70;0.70;;;9.90;99.90;;;;;;5094128;28;20199;-75
2024/03/14 09:15:25;;;;;;;0.70;0.70;;;9.80;99.90;;;;;;5109827;28;20686;-76
2024/03/14 09:17:51;;;;;;;0.60;0.60;;;9.90;99.90;;;;;;5131288;22;20239;-82
2024/03/14 09:20:19;;;;;;;0.60;0.60;;;10.00;99.90;;;;;;5118064;27;20190;-84
2024/03/14 09:22:53;;;;;;;0.70;0.70;;;10.10;99.90;;;;;;5135862;27;20219;-84
2024/03/14 09:25:21;;;;;;;0.60;0.60;;;10.20;99.90;;;;;;5116827;27;20191;-84
2024/03/14 09:27:46;;;;;;;0.70;0.70;;;10.40;99.90;;;;;;5135218;27;20187;-87
2024/03/14 09:30:13;;;;;;;0.60;0.60;;;10.30;99.90;;;;;;5135145;27;20203;-85
2024/03/14 09:32:42;;;;;;;0.60;0.60;;;10.20;99.90;;;;;;5135046;27;20239;-85
2024/03/14 09:35:13;;;;;;;0.60;0.60;;;10.20;99.90;;;;;;5117035;27;20678;-85
2024/03/14 09:37:39;;;;;;;0.60;0.60;;;10.30;99.90;;;;;;5115665;27;20670;-86
2024/03/14 09:40:06;;;;;;;0.60;0.60;;;10.60;99.90;;;;;;5116926;27;20245;-83
2024/03/14 09:42:32;;;;;;;0.70;0.70;;;10.60;99.90;;;;;;5117372;27;20218;-85
2024/03/14 09:45:04;;;;;;;0.60;0.60;;;10.80;99.90;;;;;;5135707;27;20187;-79
2024/03/14 09:47:37;;;;;;;0.70;0.70;;;11.10;99.90;;;;;;5134593;27;20239;-78
2024/03/14 09:50:05;;;;;;;0.70;0.70;;;11.30;99.90;;;;;;5116298;27;20323;-77
2024/03/14 09:52:35;;;;;;;0.60;0.60;;;11.30;99.90;;;;;;5115647;27;20214;-77
2024/03/14 09:55:02;;;;;;;0.60;0.60;;;11.30;99.90;;;;;;5116042;27;20205;-77
2024/03/14 09:57:30;;;;;;;0.60;0.60;;;11.30;99.90;;;;;;5134515;27;20282;-77
2024/03/14 09:59:57;;;;;;;0.70;0.70;;;11.20;99.90;;;;;;5134372;27;20187;-78
2024/03/14 10:02:26;;;;;;;0.50;0.50;;;11.10;99.90;;;;;;5115799;27;20194;-78
2024/03/14 10:04:55;;;;;;;0.60;0.60;;;11.40;99.90;;;;;;5137752;27;20274;-78
2024/03/14 10:07:21;;;;;;;0.60;0.60;;;11.50;99.90;;;;;;5116208;27;20203;-78
2024/03/14 10:09:48;;;;;;;0.70;0.70;;;11.50;99.90;;;;;;5116968;27;20213;-78
2024/03/14 10:12:14;;;;;;;0.60;0.60;;;11.60;99.90;;;;;;5126227;27;20207;-79
2024/03/14 10:14:41;;;;;;;0.60;0.60;;;11.60;99.90;;;;;;5140126;27;20183;-77
2024/03/14 10:17:07;;;;;;;0.52;0.52;;;11.50;99.90;;;;;;5121340;27;20325;-77
2024/03/14 10:19:45;;;;;;;0.60;0.60;;;11.40;99.90;;;;;;5128046;27;20218;-89
2024/03/14 10:22:12;;;;;;;0.63;0.63;;;11.20;99.90;;;;;;5136514;27;20233;-82
2024/03/14 10:24:38;;;;;;;0.60;0.60;;;11.00;99.90;;;;;;5154782;27;20276;-84
2024/03/14 10:27:05;;;;;;;0.60;0.60;;;11.10;99.90;;;;;;5154945;27;20322;-85
2024/03/14 10:29:36;;;;;;;0.60;0.60;;;11.20;99.90;;;;;;5154560;27;20197;-85
2024/03/14 10:32:03;;;;;;;0.60;0.60;;;11.50;99.90;;;;;;5136459;27;20258;-85
2024/03/14 10:34:37;;;;;;;0.60;0.60;;;11.70;99.90;;;;;;5154470;27;20189;-86
2024/03/14 10:37:13;;;;;;;0.60;0.60;;;11.80;99.90;;;;;;5154831;27;20194;-85
2024/03/14 10:39:54;;;;;;;0.60;0.60;;;12.20;99.90;;;;;;5155088;27;20204;-85
2024/03/14 10:42:24;;;;;;;0.60;0.60;;;12.60;99.90;;;;;;5136187;27;20197;-83
2024/03/14 10:44:52;;;;;;;0.50;0.50;;;12.60;99.90;;;;;;5154616;27;20265;-86
2024/03/14 10:47:18;;;;;;;0.50;0.50;;;12.50;99.90;;;;;;5154976;27;20205;-86
2024/03/14 10:49:47;;;;;;;0.60;0.60;;;12.50;99.90;;;;;;5135992;27;20225;-85
2024/03/14 10:52:17;;;;;;;0.55;0.55;;;12.80;99.90;;;;;;5155511;27;20206;-84
2024/03/14 10:54:48;;;;;;;0.50;0.50;;;12.70;99.90;;;;;;5157580;27;20179;-79
2024/03/14 10:57:18;;;;;;;0.50;0.50;;;12.60;99.90;;;;;;5154772;27;20186;-77
2024/03/14 10:59:54;;;;;;;0.60;0.60;;;12.80;99.90;;;;;;5134918;28;20259;-78
2024/03/14 11:02:21;;;;;;;0.60;0.60;;;12.70;99.90;;;;;;5137150;28;20195;-83
2024/03/14 11:04:47;;;;;;;0.93;0.93;;;12.30;99.90;;;;;;5128707;28;20175;-80
2024/03/14 11:08:05;;;;;;;;;;;;;;;;;;;;;
2024/03/14 11:10:34;;;;;;;0.60;0.60;;;11.80;99.90;;;;;;5136853;28;20229;-78
2024/03/14 11:13:06;;;;;;;0.60;0.60;;;11.70;99.90;;;;;;5159506;27;20247;-80
2024/03/14 11:15:38;;;;;;;0.60;0.60;;;11.60;99.90;;;;;;5141494;27;20182;-78
2024/03/14 11:18:12;;;;;;;5.63;1.13;;;11.60;99.90;;;;;;5138651;28;20310;-77
2024/03/14 11:20:49;;;;;;;0.60;0.60;;;11.80;99.90;;;;;;5137657;28;20201;-78
2024/03/14 11:23:28;;;;;;;0.50;0.50;;;12.00;99.90;;;;;;5135590;28;20262;-81
2024/03/14 11:29:25;;;;;;;0.60;0.60;;;12.20;99.90;;;;;;5091924;28;20198;-78
2024/03/14 11:32:16;;;;;;;0.60;0.60;;;12.50;99.90;;;;;;5129210;28;20271;-79
2024/03/14 11:34:49;;;;;;;2.47;0.93;;;12.40;99.90;;;;;;5143132;28;20207;-78
2024/03/14 11:38:27;;;;;;;0.57;0.57;;;12.30;99.90;;;;;;5141676;28;20243;-80
2024/03/14 11:41:28;;;;;;;1.10;0.80;;;12.50;99.90;;;;;;5079076;28;20327;-82
2024/03/14 11:44:20;;;;;;;0.50;0.50;;;12.80;99.90;;;;;;5035432;28;20205;-81
2024/03/14 11:46:55;;;;;;;0.50;0.50;;;12.60;99.90;;;;;;5060355;28;20277;-80
2024/03/14 11:49:27;;;;;;;0.60;0.60;;;12.50;99.90;;;;;;5055261;28;20695;-82
2024/03/14 11:51:58;;;;;;;0.50;0.50;;;12.30;99.90;;;;;;5059963;28;20213;-79
2024/03/14 11:54:24;;;;;;;0.60;0.60;;;12.40;99.90;;;;;;5067476;28;20189;-83
2024/03/14 12:04:13;;;;;;;0.50;0.50;;;12.30;99.90;;;;;;4976701;28;20865;-81
2024/03/14 12:06:50;;;;;;;0.50;0.50;;;12.50;99.90;;;;;;4960454;28;20208;-82
2024/03/14 12:09:57;;;;;;;0.60;0.60;;;12.40;99.90;;;;;;4976731;28;20200;-80
2024/03/14 12:12:23;;;;;;;0.50;0.50;;;12.40;99.90;;;;;;4975037;28;20232;-81
2024/03/14 12:14:58;;;;;;;1.70;1.02;;;12.50;99.90;;;;;;4989564;28;20227;-81
2024/03/14 12:18:21;;;;;;;;;;;;;;;;;;;;;
2024/03/14 12:20:47;;;;;;;0.60;0.60;;;13.00;99.90;;;;;;5052119;28;20229;-82
2024/03/14 12:23:13;;;;;;;0.60;0.60;;;13.20;99.90;;;;;;5036291;28;20777;-81
2024/03/14 12:26:05;;;;;;;0.50;0.50;;;13.40;99.90;;;;;;5036061;28;20226;-81
2024/03/14 12:28:32;;;;;;;0.50;0.50;;;13.70;99.90;;;;;;5036271;28;20560;-81
2024/03/14 12:31:03;;;;;;;0.40;0.40;;;13.80;99.90;;;;;;5035628;28;20214;-83
2024/03/14 12:33:41;;;;;;;1.75;0.70;;;14.00;99.90;;;;;;5037813;28;20716;-84
2024/03/14 12:36:18;;;;;;;1.25;1.15;;;13.80;99.90;;;;;;5035656;28;20198;-83
2024/03/14 12:38:51;;;;;;;0.50;0.50;;;13.90;99.90;;;;;;5045394;27;20194;-81
2024/03/14 12:41:18;;;;;;;0.70;0.70;;;13.60;99.90;;;;;;5121813;27;20195;-84
2024/03/14 12:43:47;;;;;;;0.40;0.40;;;13.50;99.90;;;;;;5119098;27;20202;-86
2024/03/14 12:46:14;;;;;;;0.40;0.40;;;13.30;99.90;;;;;;5137826;27;20195;-87
2024/03/14 12:48:42;;;;;;;0.50;0.50;;;13.20;99.90;;;;;;5137840;27;20289;-87
2024/03/14 12:51:12;;;;;;;0.65;0.65;;;13.20;99.90;;;;;;5138572;27;20281;-84
2024/03/14 12:53:42;;;;;;;0.50;0.50;;;13.50;99.90;;;;;;5130524;27;20228;-85
2024/03/14 12:56:08;;;;;;;0.60;0.60;;;13.60;99.90;;;;;;5141432;27;20190;-86
2024/03/14 12:58:34;;;;;;;0.50;0.50;;;13.80;99.90;;;;;;5159850;27;20182;-88
2024/03/14 13:01:00;;;;;;;0.93;0.93;;;13.60;99.90;;;;;;5172681;27;20196;-86
2024/03/14 13:03:27;;;;;;;0.47;0.47;;;13.30;99.90;;;;;;5176693;27;20205;-87
2024/03/14 13:05:57;;;;;;;0.40;0.40;;;12.90;99.90;;;;;;5144429;27;20198;-87
2024/03/14 13:08:33;;;;;;;0.40;0.40;;;12.70;99.90;;;;;;5143529;27;20194;-87
2024/03/14 13:11:11;;;;;;;0.93;0.88;;;12.80;99.90;;;;;;5162867;27;20687;-87
2024/03/14 13:13:37;;;;;;;0.50;0.50;;;12.90;99.90;;;;;;5142051;27;20194;-88
2024/03/14 13:16:23;;;;;;;0.50;0.50;;;12.60;99.90;;;;;;5143474;27;20194;-86
2024/03/14 13:22:15;;;;;;;0.50;0.50;;;12.50;99.90;;;;;;5083995;28;20200;-87
2024/03/14 13:24:41;;;;;;;0.55;0.55;;;12.20;99.90;;;;;;5126413;28;20270;-86